createdAt,value
2022-11-26T00:01:41.773Z,55.46
2022-11-26T00:04:09.278Z,55.10
2022-11-26T00:06:41.820Z,55.36
2022-11-26T00:09:15.441Z,55.12
2022-11-26T00:11:42.610Z,54.92
2022-11-26T00:14:14.884Z,54.90
2022-11-26T00:16:42.444Z,54.89
2022-11-26T00:19:09.213Z,54.92
2022-11-26T00:21:38.093Z,55.10
2022-11-26T00:24:05.500Z,55.09
2022-11-26T00:26:32.314Z,54.81
2022-11-26T00:29:00.287Z,54.76
2022-11-26T00:31:27.828Z,55.15
2022-11-26T00:33:54.994Z,55.05
2022-11-26T00:36:27.773Z,55.18
2022-11-26T00:39:03.645Z,54.86
2022-11-26T00:41:38.212Z,54.91
2022-11-26T00:44:22.981Z,55.03
2022-11-26T00:46:50.258Z,55.04
2022-11-26T00:49:17.367Z,54.85
2022-11-26T00:51:44.690Z,55.05
2022-11-26T00:54:14.528Z,55.09
2022-11-26T00:56:41.400Z,55.21
2022-11-26T00:59:12.766Z,55.07
2022-11-26T01:01:39.558Z,55.18
2022-11-26T01:04:06.362Z,55.14
2022-11-26T01:06:35.106Z,55.39
2022-11-26T01:09:02.335Z,55.09
2022-11-26T01:11:29.269Z,55.28
2022-11-26T01:13:56.145Z,54.96
2022-11-26T01:16:22.860Z,54.95
2022-11-26T01:18:52.094Z,54.90
2022-11-26T01:21:19.719Z,55.14
2022-11-26T01:23:46.944Z,55.00
2022-11-26T01:26:24.738Z,55.37
2022-11-26T01:28:51.757Z,54.87
2022-11-26T01:31:22.708Z,55.38
2022-11-26T01:33:50.010Z,55.44
2022-11-26T01:36:21.009Z,55.43
2022-11-26T01:38:47.783Z,55.20
2022-11-26T01:41:27.405Z,55.07
2022-11-26T01:43:54.739Z,55.14
2022-11-26T01:46:22.460Z,55.31
2022-11-26T01:48:50.278Z,55.36
2022-11-26T01:51:24.350Z,55.56
2022-11-26T01:53:53.189Z,55.38
2022-11-26T01:56:19.840Z,55.38
2022-11-26T01:58:50.999Z,55.40
2022-11-26T02:01:19.510Z,55.21
2022-11-26T02:04:13.582Z,55.59
2022-11-26T02:06:40.905Z,55.66
2022-11-26T02:09:09.373Z,55.62
2022-11-26T02:11:36.394Z,55.73
2022-11-26T02:14:07.693Z,55.82
2022-11-26T02:16:56.152Z,55.60
2022-11-26T02:19:33.660Z,55.48
2022-11-26T02:22:30.721Z,55.87
2022-11-26T02:25:05.962Z,55.77
2022-11-26T02:27:54.458Z,55.80
2022-11-26T02:30:21.310Z,55.42
2022-11-26T02:32:58.518Z,55.85
2022-11-26T02:35:48.268Z,55.51
2022-11-26T02:38:23.477Z,55.59
2022-11-26T02:40:52.118Z,55.94
2022-11-26T02:43:19.445Z,55.60
2022-11-26T02:45:51.372Z,55.86
2022-11-26T02:48:22.945Z,55.99
2022-11-26T02:50:56.989Z,55.83
2022-11-26T02:53:26.422Z,56.03
2022-11-26T02:56:05.936Z,55.77
2022-11-26T02:58:33.474Z,55.59
2022-11-26T03:01:02.162Z,55.71
2022-11-26T03:03:39.654Z,55.81
2022-11-26T03:06:09.504Z,55.70
2022-11-26T03:08:36.535Z,55.89
2022-11-26T03:11:03.381Z,55.69
2022-11-26T03:13:30.017Z,55.79
2022-11-26T03:15:57.014Z,56.20
2022-11-26T03:18:23.829Z,56.04
2022-11-26T03:20:52.551Z,55.95
2022-11-26T03:23:19.494Z,55.73
2022-11-26T03:25:46.242Z,56.06
2022-11-26T03:28:13.054Z,55.99
2022-11-26T03:30:39.813Z,56.19
2022-11-26T03:33:06.589Z,55.92
2022-11-26T03:35:33.276Z,56.19
2022-11-26T03:37:59.978Z,55.85
2022-11-26T03:40:26.763Z,55.91
2022-11-26T03:42:53.490Z,56.14
2022-11-26T03:45:20.165Z,55.90
2022-11-26T03:47:46.910Z,55.90
2022-11-26T03:50:13.569Z,55.89
2022-11-26T03:52:40.373Z,55.91
2022-11-26T03:55:07.502Z,56.15
2022-11-26T03:57:34.247Z,55.96
2022-11-26T04:00:01.018Z,56.00
2022-11-26T04:02:27.983Z,56.24
2022-11-26T04:04:54.681Z,56.07
2022-11-26T04:07:21.515Z,56.32
2022-11-26T04:09:48.229Z,56.09
2022-11-26T04:12:14.952Z,55.84
2022-11-26T04:14:41.889Z,56.27
2022-11-26T04:17:08.774Z,56.19
2022-11-26T04:19:35.425Z,55.91
2022-11-26T04:22:02.162Z,56.08
2022-11-26T04:24:28.967Z,55.88
2022-11-26T04:26:55.745Z,56.45
2022-11-26T04:29:22.477Z,56.18
2022-11-26T04:31:49.330Z,56.25
2022-11-26T04:34:16.042Z,56.16
2022-11-26T04:36:42.743Z,55.87
2022-11-26T04:39:09.473Z,56.34
2022-11-26T04:41:36.137Z,56.02
2022-11-26T04:44:02.838Z,56.20
2022-11-26T04:46:29.603Z,55.82
2022-11-26T04:49:01.211Z,56.27
2022-11-26T04:51:29.183Z,55.94
2022-11-26T04:53:56.079Z,56.32
2022-11-26T04:56:23.750Z,56.21
2022-11-26T04:58:50.973Z,56.19
2022-11-26T05:01:17.699Z,56.31
2022-11-26T05:03:44.407Z,56.01
2022-11-26T05:06:11.754Z,56.23
2022-11-26T05:08:38.398Z,56.21
2022-11-26T05:11:09.248Z,56.08
2022-11-26T05:13:37.289Z,56.20
2022-11-26T05:16:04.112Z,56.01
2022-11-26T05:18:30.877Z,55.83
2022-11-26T05:20:57.507Z,55.74
2022-11-26T05:23:24.257Z,55.97
2022-11-26T05:25:51.518Z,55.77
2022-11-26T05:28:18.279Z,56.11
2022-11-26T05:30:44.965Z,55.96
2022-11-26T05:33:11.754Z,55.87
2022-11-26T05:35:38.579Z,55.78
2022-11-26T05:38:05.345Z,55.72
2022-11-26T05:40:32.285Z,56.15
2022-11-26T05:42:59.080Z,56.08
2022-11-26T05:45:25.820Z,55.84
2022-11-26T05:47:52.586Z,55.58
2022-11-26T05:50:19.397Z,55.91
2022-11-26T05:52:46.160Z,55.47
2022-11-26T05:55:13.055Z,55.51
2022-11-26T05:57:39.825Z,55.66
2022-11-26T06:00:07.265Z,55.44
2022-11-26T06:02:38.808Z,55.63
2022-11-26T06:05:06.259Z,55.29
2022-11-26T06:07:33.226Z,55.36
2022-11-26T06:10:00.034Z,55.72
2022-11-26T06:12:26.866Z,55.60
2022-11-26T06:14:53.591Z,55.50
2022-11-26T06:17:20.920Z,55.58
2022-11-26T06:19:47.682Z,55.20
2022-11-26T06:22:14.383Z,55.49
2022-11-26T06:24:41.165Z,55.17
2022-11-26T06:27:07.893Z,55.58
2022-11-26T06:29:34.699Z,55.11
2022-11-26T06:32:01.444Z,55.13
2022-11-26T06:34:28.593Z,55.36
2022-11-26T06:36:55.335Z,55.23
2022-11-26T06:39:22.131Z,54.94
2022-11-26T06:41:48.801Z,55.12
2022-11-26T06:44:15.606Z,55.17
2022-11-26T06:46:42.373Z,54.92
2022-11-26T06:49:10.377Z,55.00
2022-11-26T06:51:37.537Z,54.65
2022-11-26T06:54:04.988Z,54.61
2022-11-26T06:56:31.884Z,54.64
2022-11-26T06:58:58.728Z,54.51
2022-11-26T07:01:26.706Z,54.83
2022-11-26T07:03:53.958Z,54.79
2022-11-26T07:06:25.950Z,54.75
2022-11-26T07:08:54.326Z,54.47
2022-11-26T07:11:21.780Z,54.67
2022-11-26T07:13:48.724Z,54.30
2022-11-26T07:16:15.723Z,53.45
2022-11-26T07:18:42.613Z,53.24
2022-11-26T07:21:13.293Z,53.06
2022-11-26T07:23:40.887Z,53.26
2022-11-26T07:26:08.135Z,53.03
2022-11-26T07:28:35.682Z,52.90
2022-11-26T07:31:03.696Z,53.16
2022-11-26T07:33:30.604Z,53.19
2022-11-26T07:36:01.661Z,53.31
2022-11-26T07:38:29.622Z,53.51
2022-11-26T07:41:03.596Z,53.81
2022-11-26T07:43:30.446Z,53.50
2022-11-26T07:45:57.176Z,53.64
2022-11-26T07:48:23.926Z,53.81
2022-11-26T07:50:50.660Z,53.80
2022-11-26T07:53:17.482Z,53.51
2022-11-26T07:55:50.151Z,53.85
2022-11-26T07:58:18.255Z,53.88
2022-11-26T08:00:45.174Z,53.57
2022-11-26T08:03:11.874Z,53.88
2022-11-26T08:05:43.098Z,54.29
2022-11-26T08:08:10.637Z,54.24
2022-11-26T08:10:37.602Z,54.15
2022-11-26T08:13:04.548Z,54.50
2022-11-26T08:15:32.377Z,54.15
2022-11-26T08:17:59.262Z,54.61
2022-11-26T08:20:29.080Z,54.72
2022-11-26T08:22:56.101Z,54.35
2022-11-26T08:25:22.775Z,54.33
2022-11-26T08:27:49.539Z,54.71
2022-11-26T08:30:16.466Z,54.57
2022-11-26T08:32:43.230Z,54.72
2022-11-26T08:35:09.981Z,54.89
2022-11-26T08:37:36.743Z,55.00
2022-11-26T08:40:04.196Z,55.07
2022-11-26T08:42:31.041Z,55.15
2022-11-26T08:44:57.851Z,55.71
2022-11-26T08:47:24.796Z,55.76
2022-11-26T08:49:51.909Z,55.70
2022-11-26T08:52:18.625Z,55.58
2022-11-26T08:54:45.764Z,55.54
2022-11-26T08:57:13.909Z,55.22
2022-11-26T08:59:41.402Z,55.14
2022-11-26T09:02:17.366Z,55.13
2022-11-26T09:04:45.471Z,55.28
2022-11-26T09:07:12.332Z,55.00
2022-11-26T09:09:39.068Z,55.42
2022-11-26T09:12:05.995Z,55.00
2022-11-26T09:14:39.482Z,55.08
2022-11-26T09:17:07.356Z,54.79
2022-11-26T09:19:34.087Z,55.02
2022-11-26T09:22:01.038Z,55.41
2022-11-26T09:24:27.981Z,55.42
2022-11-26T09:26:54.758Z,55.37
2022-11-26T09:29:23.133Z,55.07
2022-11-26T09:32:21.469Z,55.00
2022-11-26T09:34:37.510Z,55.50
2022-11-26T09:37:04.346Z,55.39
2022-11-26T09:39:31.133Z,55.61
2022-11-26T09:42:08.482Z,55.12
2022-11-26T09:45:10.590Z,55.24
2022-11-26T09:47:43.965Z,55.43
2022-11-26T09:50:13.424Z,55.24
2022-11-26T09:52:49.203Z,55.47
2022-11-26T09:55:24.183Z,55.56
2022-11-26T09:58:26.680Z,55.50
2022-11-26T10:00:56.336Z,55.38
2022-11-26T10:03:25.829Z,55.27
2022-11-26T10:06:02.573Z,55.52
2022-11-26T10:08:41.337Z,55.41
2022-11-26T10:11:30.277Z,55.80
2022-11-26T10:14:02.806Z,55.63
2022-11-26T10:16:41.208Z,55.95
2022-11-26T10:19:18.976Z,55.82
2022-11-26T10:22:00.234Z,55.77
2022-11-26T10:24:31.265Z,55.59
2022-11-26T10:27:01.118Z,55.83
2022-11-26T10:29:35.577Z,55.63
2022-11-26T10:32:12.722Z,55.66
2022-11-26T10:34:46.414Z,55.64
2022-11-26T10:37:13.745Z,55.38
2022-11-26T10:39:40.789Z,55.63
2022-11-26T10:42:17.468Z,55.32
2022-11-26T10:44:44.886Z,55.66
2022-11-26T10:47:31.699Z,55.75
2022-11-26T10:50:14.420Z,55.63
2022-11-26T10:52:52.641Z,54.94
2022-11-26T10:55:29.400Z,55.32
2022-11-26T10:58:06.313Z,54.88
2022-11-26T11:00:44.242Z,54.92
2022-11-26T11:06:21.902Z,55.34
2022-11-26T11:08:50.739Z,55.49
2022-11-26T11:11:22.835Z,55.37
2022-11-26T11:13:49.737Z,55.29
2022-11-26T11:16:29.111Z,55.43
2022-11-26T11:18:57.469Z,55.46
2022-11-26T11:21:30.402Z,55.54
2022-11-26T11:24:14.777Z,55.68
2022-11-26T11:26:44.013Z,55.12
2022-11-26T11:29:29.146Z,55.22
2022-11-26T11:31:57.425Z,55.69
2022-11-26T11:34:30.904Z,55.60
2022-11-26T11:37:14.803Z,55.85
2022-11-26T11:39:42.951Z,55.01
2022-11-26T11:42:29.246Z,55.44
2022-11-26T11:44:56.913Z,55.87
2022-11-26T11:47:43.245Z,56.00
2022-11-26T11:50:19.059Z,55.80
2022-11-26T11:52:48.845Z,55.61
2022-11-26T11:55:27.141Z,55.81
2022-11-26T11:58:04.615Z,55.72
2022-11-26T12:00:53.662Z,55.82
2022-11-26T12:03:29.410Z,55.26
2022-11-26T12:06:32.021Z,55.52
2022-11-26T12:09:17.890Z,55.63
2022-11-26T12:12:01.948Z,55.62
2022-11-26T12:14:44.814Z,55.53
2022-11-26T12:17:33.816Z,55.66
2022-11-26T12:20:09.056Z,55.82
2022-11-26T12:22:59.089Z,56.16
2022-11-26T12:25:37.321Z,55.63
2022-11-26T12:28:11.774Z,55.52
2022-11-26T12:30:46.031Z,55.51
2022-11-26T12:33:20.870Z,55.81
2022-11-26T12:35:57.021Z,55.43
2022-11-26T12:38:35.017Z,55.72
2022-11-26T12:41:24.366Z,56.01
2022-11-26T12:44:01.682Z,55.41
2022-11-26T12:46:37.179Z,55.69
2022-11-26T12:49:12.626Z,55.63
2022-11-26T12:51:54.626Z,55.56
2022-11-26T12:54:39.433Z,55.27
2022-11-26T12:57:22.513Z,55.18
2022-11-26T12:59:56.737Z,54.88
2022-11-26T13:02:30.552Z,55.41
2022-11-26T13:04:59.048Z,55.69
2022-11-26T13:07:47.934Z,55.34
2022-11-26T13:10:30.327Z,55.52
2022-11-26T13:13:16.550Z,55.16
2022-11-26T13:16:14.491Z,55.48
2022-11-26T13:18:47.674Z,55.60
2022-11-26T13:21:24.298Z,55.36
2022-11-26T13:24:28.172Z,55.49
2022-11-26T13:27:16.875Z,55.80
2022-11-26T13:29:55.587Z,55.81
2022-11-26T13:32:43.409Z,55.48
2022-11-26T13:35:31.614Z,55.61
2022-11-26T13:38:48.775Z,55.91
2022-11-26T13:41:27.649Z,55.29
2022-11-26T13:44:09.436Z,55.54
2022-11-26T13:46:58.747Z,55.37
2022-11-26T13:49:42.212Z,55.50
2022-11-26T13:52:23.844Z,55.58
2022-11-26T13:55:19.745Z,55.53
2022-11-26T13:57:48.961Z,55.21
2022-11-26T14:00:29.730Z,55.13
2022-11-26T14:02:58.644Z,55.60
2022-11-26T14:05:50.823Z,55.22
2022-11-26T14:08:35.517Z,55.19
2022-11-26T14:11:02.388Z,54.75
2022-11-26T14:13:29.051Z,54.68
2022-11-26T14:16:07.766Z,54.57
2022-11-26T14:18:50.601Z,55.01
2022-11-26T14:21:18.828Z,54.67
2022-11-26T14:23:54.738Z,54.37
2022-11-26T14:26:28.718Z,54.57
2022-11-26T14:29:07.751Z,54.67
2022-11-26T14:31:36.426Z,54.90
2022-11-26T14:34:14.275Z,54.95
2022-11-26T14:36:56.457Z,54.47
2022-11-26T14:39:23.747Z,54.36
2022-11-26T14:42:05.169Z,54.31
2022-11-26T14:44:34.417Z,54.13
2022-11-26T14:47:08.641Z,54.19
2022-11-26T14:49:57.770Z,54.31
2022-11-26T14:52:36.319Z,54.04
2022-11-26T14:55:07.425Z,53.91
2022-11-26T14:57:48.357Z,54.38
2022-11-26T15:00:15.260Z,54.11
2022-11-26T15:02:46.096Z,54.16
2022-11-26T15:05:16.969Z,54.32
2022-11-26T15:07:44.274Z,54.15
2022-11-26T15:10:14.380Z,54.50
2022-11-26T15:12:42.607Z,54.60
2022-11-26T15:15:14.836Z,54.21
2022-11-26T15:17:45.265Z,54.17
2022-11-26T15:20:16.109Z,54.45
2022-11-26T15:22:51.614Z,54.75
2022-11-26T15:25:25.471Z,54.52
2022-11-26T15:28:18.804Z,54.68
2022-11-26T15:30:56.171Z,54.76
2022-11-26T15:33:23.956Z,54.69
2022-11-26T15:35:57.446Z,55.19
2022-11-26T15:38:26.504Z,55.35
2022-11-26T15:40:54.477Z,55.54
2022-11-26T15:43:33.899Z,55.34
2022-11-26T15:46:13.155Z,55.55
2022-11-26T15:48:58.559Z,55.58
2022-11-26T15:51:35.811Z,55.99
2022-11-26T15:54:20.718Z,55.75
2022-11-26T15:56:54.164Z,55.97
2022-11-26T15:59:21.623Z,56.12
2022-11-26T16:01:48.427Z,55.94
2022-11-26T16:04:51.760Z,55.90
2022-11-26T16:07:21.757Z,55.85
2022-11-26T16:09:49.868Z,56.18
2022-11-26T16:12:28.530Z,56.32
2022-11-26T16:15:23.013Z,56.38
2022-11-26T16:17:50.715Z,56.22
2022-11-26T16:20:28.298Z,56.49
2022-11-26T16:22:58.154Z,56.53
2022-11-26T16:25:30.657Z,56.16
2022-11-26T16:28:09.586Z,56.66
2022-11-26T16:30:37.555Z,56.34
2022-11-26T16:33:05.039Z,56.20
2022-11-26T16:35:47.590Z,56.67
2022-11-26T16:38:40.346Z,56.71
2022-11-26T16:41:12.188Z,56.27
2022-11-26T16:43:38.977Z,56.14
2022-11-26T16:46:12.001Z,56.54
2022-11-26T16:48:39.237Z,56.49
2022-11-26T16:51:06.049Z,56.32
2022-11-26T16:53:32.829Z,56.31
2022-11-26T16:56:00.121Z,56.53
2022-11-26T16:58:37.842Z,56.33
2022-11-26T17:01:04.646Z,56.35
2022-11-26T17:03:33.565Z,56.35
2022-11-26T17:06:03.657Z,56.51
2022-11-26T17:08:30.806Z,56.53
2022-11-26T17:14:48.201Z,56.57
2022-11-26T17:17:20.454Z,56.09
2022-11-26T17:19:50.935Z,55.99
2022-11-26T17:22:17.641Z,55.98
2022-11-26T17:24:44.416Z,56.30
2022-11-26T17:27:16.714Z,55.92
2022-11-26T17:29:44.973Z,56.00
2022-11-26T17:32:13.414Z,55.87
2022-11-26T17:34:41.018Z,56.18
2022-11-26T17:37:14.349Z,55.85
2022-11-26T17:39:41.476Z,56.25
2022-11-26T17:42:08.403Z,55.71
2022-11-26T17:44:35.165Z,55.69
2022-11-26T17:47:16.505Z,55.61
2022-11-26T17:49:45.276Z,55.67
2022-11-26T17:52:12.201Z,55.60
2022-11-26T17:54:39.367Z,55.64
2022-11-26T17:57:06.387Z,55.72
2022-11-26T17:59:33.378Z,55.89
2022-11-26T18:02:02.952Z,55.83
2022-11-26T18:04:30.143Z,55.38
2022-11-26T18:07:02.939Z,55.47
2022-11-26T18:09:29.701Z,55.61
2022-11-26T18:11:57.171Z,55.83
2022-11-26T18:14:24.534Z,55.43
2022-11-26T18:16:52.298Z,55.69
2022-11-26T18:19:20.970Z,55.63
2022-11-26T18:21:50.715Z,55.60
2022-11-26T18:24:17.933Z,55.49
2022-11-26T18:26:44.596Z,55.57
2022-11-26T18:29:11.646Z,55.62
2022-11-26T18:31:39.830Z,55.56
2022-11-26T18:34:07.404Z,55.16
2022-11-26T18:36:34.205Z,55.40
2022-11-26T18:39:03.270Z,55.03
2022-11-26T18:41:29.974Z,55.01
2022-11-26T18:43:56.764Z,55.22
2022-11-26T18:46:23.746Z,55.17
2022-11-26T18:48:51.161Z,54.79
2022-11-26T18:51:18.413Z,54.82
2022-11-26T18:53:45.433Z,54.73
2022-11-26T18:56:14.974Z,54.94
2022-11-26T18:58:42.384Z,54.73
2022-11-26T19:01:14.836Z,54.61
2022-11-26T19:03:44.092Z,54.72
2022-11-26T19:06:15.329Z,54.80
2022-11-26T19:08:42.727Z,54.58
2022-11-26T19:11:15.783Z,54.71
2022-11-26T19:13:42.964Z,54.22
2022-11-26T19:16:16.605Z,54.18
2022-11-26T19:18:45.612Z,54.37
2022-11-26T19:21:22.966Z,54.14
2022-11-26T19:23:50.689Z,54.19
2022-11-26T19:26:19.174Z,54.04
2022-11-26T19:28:46.588Z,53.98
2022-11-26T19:31:15.938Z,53.75
2022-11-26T19:33:43.633Z,53.78
2022-11-26T19:36:13.364Z,54.07
2022-11-26T19:38:40.174Z,53.89
2022-11-26T19:41:07.258Z,53.56
2022-11-26T19:43:36.313Z,53.80
2022-11-26T19:46:29.405Z,54.03
2022-11-26T19:48:56.209Z,53.29
2022-11-26T19:51:24.478Z,53.69
2022-11-26T19:53:53.130Z,53.57
2022-11-26T19:56:25.097Z,53.49
2022-11-26T19:58:54.210Z,53.21
2022-11-26T20:01:22.271Z,53.09
2022-11-26T20:03:49.813Z,53.22
2022-11-26T20:06:22.934Z,53.14
2022-11-26T20:08:51.811Z,53.20
2022-11-26T20:11:22.444Z,53.25
2022-11-26T20:13:49.337Z,53.30
2022-11-26T20:16:18.641Z,52.69
2022-11-26T20:18:47.355Z,52.99
2022-11-26T20:21:20.454Z,53.15
2022-11-26T20:23:49.530Z,53.00
2022-11-26T20:26:17.838Z,52.82
2022-11-26T20:28:45.415Z,53.05
2022-11-26T20:31:13.775Z,52.92
2022-11-26T20:33:41.123Z,52.85
2022-11-26T20:36:10.787Z,52.66
2022-11-26T20:38:38.070Z,53.02
2022-11-26T20:41:08.434Z,52.95
2022-11-26T20:43:35.483Z,52.59
2022-11-26T20:46:04.643Z,52.64
2022-11-26T20:48:35.288Z,52.70
2022-11-26T20:51:06.496Z,52.75
2022-11-26T20:53:35.074Z,52.75
2022-11-26T20:56:02.427Z,52.79
2022-11-26T20:58:29.549Z,52.44
2022-11-26T21:00:57.662Z,52.35
2022-11-26T21:03:25.691Z,52.71
2022-11-26T21:05:52.847Z,52.32
2022-11-26T21:08:20.535Z,52.23
2022-11-26T21:10:48.336Z,52.23
2022-11-26T21:13:16.769Z,51.99
2022-11-26T21:15:44.573Z,52.34
2022-11-26T21:18:11.446Z,52.35
2022-11-26T21:20:42.229Z,52.03
2022-11-26T21:23:09.156Z,52.26
2022-11-26T21:25:41.239Z,51.99
2022-11-26T21:28:08.764Z,51.75
2022-11-26T21:30:36.579Z,51.85
2022-11-26T21:33:09.079Z,51.89
2022-11-26T21:35:37.020Z,51.67
2022-11-26T21:38:05.051Z,51.88
2022-11-26T21:40:36.567Z,51.75
2022-11-26T21:43:09.375Z,51.58
2022-11-26T21:45:39.347Z,51.86
2022-11-26T21:48:07.022Z,51.58
2022-11-26T21:50:33.697Z,51.85
2022-11-26T21:53:01.889Z,51.51
2022-11-26T21:55:28.574Z,51.80
2022-11-26T21:57:55.259Z,51.78
2022-11-26T22:00:22.120Z,51.86
2022-11-26T22:02:48.982Z,51.51
2022-11-26T22:05:15.728Z,51.43
2022-11-26T22:07:42.594Z,51.64
2022-11-26T22:10:10.037Z,51.45
2022-11-26T22:12:37.073Z,51.41
2022-11-26T22:15:04.046Z,51.32
2022-11-26T22:17:30.722Z,51.46
2022-11-26T22:19:57.454Z,51.54
2022-11-26T22:22:25.860Z,51.37
2022-11-26T22:24:53.547Z,51.17
2022-11-26T22:27:20.374Z,51.18
2022-11-26T22:29:48.017Z,51.25
2022-11-26T22:32:14.769Z,51.44
2022-11-26T22:34:41.555Z,51.17
2022-11-26T22:37:08.318Z,51.36
2022-11-26T22:39:34.976Z,51.11
2022-11-26T22:42:01.889Z,51.39
2022-11-26T22:44:28.559Z,51.13
2022-11-26T22:46:55.241Z,51.35
2022-11-26T22:49:22.133Z,51.06
2022-11-26T22:51:49.146Z,51.38
2022-11-26T22:54:16.247Z,51.16
2022-11-26T22:56:43.032Z,51.30
2022-11-26T22:59:12.217Z,51.29
2022-11-26T23:01:39.231Z,51.36
2022-11-26T23:04:09.055Z,51.21
2022-11-26T23:06:36.650Z,51.00
2022-11-26T23:09:05.889Z,50.99
2022-11-26T23:11:35.996Z,50.90
2022-11-26T23:14:04.951Z,51.27
2022-11-26T23:16:31.710Z,50.99
2022-11-26T23:18:58.570Z,51.00
2022-11-26T23:21:28.283Z,50.85
2022-11-26T23:23:55.469Z,50.67
2022-11-26T23:26:27.497Z,50.90
2022-11-26T23:28:56.025Z,50.82
2022-11-26T23:31:25.747Z,50.60
2022-11-26T23:33:52.812Z,50.71
2022-11-26T23:36:19.554Z,50.59
2022-11-26T23:38:46.371Z,50.81
2022-11-26T23:41:13.026Z,50.83
2022-11-26T23:43:40.011Z,50.52
2022-11-26T23:46:24.342Z,50.97
2022-11-26T23:48:51.524Z,50.88
2022-11-26T23:51:21.055Z,50.79
2022-11-26T23:53:48.773Z,50.85
2022-11-26T23:56:18.929Z,50.69
2022-11-26T23:58:51.019Z,50.37
